Time;durP1;ratioP1;P1;durP2;ratioP2;P2;SDS_P1;SDS_P2;PMS_P1;PMS_P2;Temp;Humidity;BMP_temperature;BMP_pressure;BME280_temperature;BME280_humidity;BME280_pressure;Samples;Min_cycle;Max_cycle;Signal;HPM_P1;HPM_P2
2021/09/01 00:01:55;;;;;;;0.60;0.60;;;16.00;99.90;;;;;;4999003;28;20228;-77
2021/09/01 00:04:22;;;;;;;2.05;0.55;;;16.00;99.90;;;;;;5003668;28;20223;-77
2021/09/01 00:06:49;;;;;;;0.57;0.57;;;16.00;99.90;;;;;;5001566;28;20769;-77
2021/09/01 00:09:17;;;;;;;0.60;0.60;;;16.00;99.90;;;;;;5013161;28;20278;-77
2021/09/01 00:11:45;;;;;;;0.60;0.60;;;16.00;99.90;;;;;;4999287;28;20764;-77
2021/09/01 00:14:13;;;;;;;0.70;0.70;;;16.00;99.90;;;;;;4996330;28;20592;-77
2021/09/01 00:16:40;;;;;;;0.60;0.60;;;15.90;99.90;;;;;;4995993;28;20933;-77
2021/09/01 00:19:10;;;;;;;0.73;0.65;;;16.00;99.90;;;;;;4999616;28;20347;-77
2021/09/01 00:21:37;;;;;;;0.52;0.52;;;16.00;99.90;;;;;;4997321;28;20657;-77
2021/09/01 00:24:05;;;;;;;0.50;0.50;;;15.90;99.90;;;;;;5004422;28;20240;-77
2021/09/01 00:26:34;;;;;;;0.50;0.50;;;15.90;99.90;;;;;;5000224;28;20286;-77
2021/09/01 00:29:01;;;;;;;0.60;0.60;;;15.90;99.90;;;;;;4996476;28;20274;-77
2021/09/01 00:31:29;;;;;;;0.80;0.80;;;15.90;99.90;;;;;;4992472;28;20282;-77
2021/09/01 00:33:56;;;;;;;0.70;0.70;;;15.90;99.90;;;;;;4994287;28;20293;-77
2021/09/01 00:36:23;;;;;;;0.88;0.88;;;15.80;99.90;;;;;;4992586;28;20639;-77
2021/09/01 00:38:50;;;;;;;0.60;0.60;;;15.80;99.90;;;;;;4998244;28;20266;-77
2021/09/01 00:41:18;;;;;;;0.60;0.60;;;15.80;99.90;;;;;;4990511;28;20825;-77
2021/09/01 00:43:47;;;;;;;0.70;0.70;;;15.70;99.90;;;;;;4994051;28;20270;-77
2021/09/01 00:46:14;;;;;;;1.38;1.00;;;15.60;99.90;;;;;;5002255;28;20239;-77
2021/09/01 00:48:41;;;;;;;0.60;0.60;;;15.60;99.90;;;;;;4998460;28;20219;-77
2021/09/01 00:51:08;;;;;;;0.73;0.73;;;15.60;99.90;;;;;;4995033;28;20687;-77
2021/09/01 00:53:38;;;;;;;0.80;0.80;;;15.60;99.90;;;;;;5000598;28;20232;-77
2021/09/01 00:56:06;;;;;;;0.70;0.70;;;15.60;99.90;;;;;;4995270;28;20290;-77
2021/09/01 00:58:36;;;;;;;0.85;0.85;;;15.60;99.90;;;;;;4994902;28;20295;-77
2021/09/01 01:01:16;;;;;;;0.60;0.60;;;15.60;99.90;;;;;;4998165;28;20607;-77
2021/09/01 01:03:45;;;;;;;0.80;0.80;;;15.60;99.90;;;;;;5011063;28;20251;-78
2021/09/01 01:06:12;;;;;;;0.65;0.65;;;15.60;99.90;;;;;;5001123;28;20224;-77
2021/09/01 01:08:39;;;;;;;0.70;0.70;;;15.60;99.90;;;;;;4999483;28;20274;-77
2021/09/01 01:11:12;;;;;;;0.63;0.63;;;15.50;99.90;;;;;;4995268;28;20283;-76
2021/09/01 01:13:40;;;;;;;0.70;0.70;;;15.60;99.90;;;;;;5001445;28;20319;-77
2021/09/01 01:16:08;;;;;;;0.60;0.60;;;15.50;99.90;;;;;;4997749;28;20295;-76
2021/09/01 01:18:35;;;;;;;0.68;0.68;;;15.50;99.90;;;;;;4995043;28;20232;-77
2021/09/01 01:21:02;;;;;;;0.55;0.55;;;15.40;99.90;;;;;;4993390;28;20274;-76
2021/09/01 01:23:29;;;;;;;0.50;0.50;;;15.40;99.90;;;;;;4996603;28;20228;-77
2021/09/01 01:25:58;;;;;;;0.55;0.55;;;15.40;99.90;;;;;;4994777;28;20228;-76
2021/09/01 01:28:25;;;;;;;0.60;0.60;;;15.40;99.90;;;;;;4997869;28;20329;-76
2021/09/01 01:30:52;;;;;;;0.70;0.70;;;15.30;99.90;;;;;;4999202;28;20220;-77
2021/09/01 01:33:19;;;;;;;0.70;0.70;;;15.30;99.90;;;;;;4995427;28;20236;-77
2021/09/01 01:35:47;;;;;;;0.60;0.60;;;15.30;99.90;;;;;;4994732;28;20243;-77
2021/09/01 01:38:17;;;;;;;0.50;0.50;;;15.30;99.90;;;;;;4995316;28;20235;-77
2021/09/01 01:40:45;;;;;;;0.65;0.65;;;15.30;99.90;;;;;;4991750;28;20224;-77
2021/09/01 01:43:14;;;;;;;0.60;0.60;;;15.30;99.90;;;;;;4989611;28;20238;-77
2021/09/01 01:45:43;;;;;;;0.60;0.60;;;15.30;99.90;;;;;;5001365;28;20729;-76
2021/09/01 01:48:12;;;;;;;0.80;0.80;;;15.20;99.90;;;;;;5002656;28;20228;-77
2021/09/01 01:50:40;;;;;;;0.85;0.85;;;15.20;99.90;;;;;;5002387;28;20222;-77
2021/09/01 01:53:08;;;;;;;0.70;0.70;;;15.20;99.90;;;;;;5001227;28;20294;-76
2021/09/01 01:55:35;;;;;;;0.60;0.60;;;15.20;99.90;;;;;;5003389;28;20278;-76
2021/09/01 01:58:03;;;;;;;0.80;0.80;;;15.20;99.90;;;;;;5010916;28;20208;-77
2021/09/01 02:00:32;;;;;;;0.70;0.70;;;15.20;99.90;;;;;;4998080;28;20216;-77
2021/09/01 02:02:59;;;;;;;0.80;0.80;;;15.20;99.90;;;;;;5000902;28;20623;-76
2021/09/01 02:05:26;;;;;;;0.60;0.60;;;15.20;99.90;;;;;;4996009;28;20248;-77
2021/09/01 02:07:53;;;;;;;0.77;0.77;;;15.20;99.90;;;;;;4997973;28;20248;-76
2021/09/01 02:10:21;;;;;;;0.95;0.65;;;15.20;99.90;;;;;;4995388;28;20229;-77
2021/09/01 02:12:48;;;;;;;0.73;0.73;;;15.20;99.90;;;;;;5001270;28;20231;-77
2021/09/01 02:15:16;;;;;;;0.73;0.73;;;15.20;99.90;;;;;;5003402;28;20237;-77
2021/09/01 02:17:44;;;;;;;0.70;0.70;;;15.20;99.90;;;;;;5002451;28;20301;-77
2021/09/01 02:20:13;;;;;;;0.70;0.70;;;15.10;99.90;;;;;;4960772;28;20278;-77
2021/09/01 02:22:41;;;;;;;0.80;0.80;;;15.10;99.90;;;;;;5003766;28;20220;-77
2021/09/01 02:25:12;;;;;;;0.80;0.80;;;15.10;99.90;;;;;;5003159;28;20248;-78
2021/09/01 02:27:39;;;;;;;0.70;0.70;;;15.10;99.90;;;;;;5000501;28;20224;-77
2021/09/01 02:30:08;;;;;;;1.00;1.00;;;15.00;99.90;;;;;;5004436;28;20228;-77
2021/09/01 02:32:35;;;;;;;1.00;1.00;;;15.00;99.90;;;;;;4995883;28;20256;-77
2021/09/01 02:35:04;;;;;;;0.73;0.73;;;15.00;99.90;;;;;;5000735;28;20224;-77
2021/09/01 02:37:31;;;;;;;0.80;0.80;;;14.90;99.90;;;;;;4995627;28;20217;-77
2021/09/01 02:39:58;;;;;;;0.80;0.80;;;14.90;99.90;;;;;;5000217;28;20216;-77
2021/09/01 02:42:25;;;;;;;0.80;0.80;;;14.90;99.90;;;;;;4999203;28;20573;-77
2021/09/01 02:44:52;;;;;;;0.80;0.80;;;14.90;99.90;;;;;;5000002;28;20279;-77
2021/09/01 02:47:19;;;;;;;0.70;0.70;;;14.80;99.90;;;;;;5001590;28;21074;-77
2021/09/01 02:49:46;;;;;;;0.80;0.80;;;14.80;99.90;;;;;;5000488;28;20287;-77
2021/09/01 02:52:14;;;;;;;0.80;0.80;;;14.80;99.90;;;;;;5012094;28;20224;-77
2021/09/01 02:54:41;;;;;;;1.08;1.00;;;14.80;99.90;;;;;;5003489;28;20666;-77
2021/09/01 02:57:08;;;;;;;0.90;0.90;;;14.70;99.90;;;;;;5001262;28;20286;-76
2021/09/01 02:59:35;;;;;;;0.82;0.82;;;14.70;99.90;;;;;;5000629;28;20643;-77
2021/09/01 03:02:03;;;;;;;0.73;0.73;;;14.70;99.90;;;;;;5003947;28;20239;-77
2021/09/01 03:04:30;;;;;;;1.00;1.00;;;14.70;99.90;;;;;;5002536;28;20236;-77
2021/09/01 03:06:57;;;;;;;0.90;0.90;;;14.70;99.90;;;;;;5003775;28;20636;-78
2021/09/01 03:09:25;;;;;;;0.90;0.90;;;14.60;99.90;;;;;;4999593;28;20232;-77
2021/09/01 03:11:52;;;;;;;0.90;0.90;;;14.60;99.90;;;;;;5001541;28;20216;-77
2021/09/01 03:14:19;;;;;;;0.80;0.80;;;14.60;99.90;;;;;;4997795;28;20710;-77
2021/09/01 03:16:46;;;;;;;0.80;0.80;;;14.60;99.90;;;;;;4998330;28;20233;-77
2021/09/01 03:19:13;;;;;;;0.70;0.70;;;14.60;99.90;;;;;;5002323;28;20227;-77
2021/09/01 03:21:40;;;;;;;0.80;0.80;;;14.60;99.90;;;;;;4999453;28;20248;-77
2021/09/01 03:24:07;;;;;;;0.70;0.70;;;14.60;99.90;;;;;;5001283;28;20371;-77
2021/09/01 03:26:35;;;;;;;1.13;1.02;;;14.50;99.90;;;;;;5003080;28;20229;-77
2021/09/01 03:29:03;;;;;;;1.10;1.10;;;14.50;99.90;;;;;;5000741;28;20269;-77
2021/09/01 03:31:30;;;;;;;0.80;0.80;;;14.50;99.90;;;;;;4997680;28;20229;-77
2021/09/01 03:33:57;;;;;;;0.90;0.88;;;14.40;99.90;;;;;;4995794;28;20221;-77
2021/09/01 03:36:24;;;;;;;1.42;0.80;;;14.40;99.90;;;;;;4999540;28;20228;-77
2021/09/01 03:38:51;;;;;;;0.85;0.85;;;14.40;99.90;;;;;;4999591;28;20316;-77
2021/09/01 03:41:18;;;;;;;0.80;0.80;;;14.30;99.90;;;;;;4994688;28;20286;-77
2021/09/01 03:43:47;;;;;;;0.90;0.90;;;14.30;99.90;;;;;;4998081;28;20268;-77
2021/09/01 03:46:14;;;;;;;0.70;0.70;;;14.30;99.90;;;;;;4999384;28;20305;-77
2021/09/01 03:48:41;;;;;;;0.95;0.95;;;14.40;99.90;;;;;;5015796;28;20229;-77
2021/09/01 03:51:08;;;;;;;0.80;0.80;;;14.30;99.90;;;;;;5003418;28;20740;-76
2021/09/01 03:53:35;;;;;;;1.60;0.95;;;14.30;99.90;;;;;;4998646;28;20283;-76
2021/09/01 03:56:02;;;;;;;0.90;0.90;;;14.30;99.90;;;;;;4996867;28;20233;-77
2021/09/01 03:58:29;;;;;;;0.93;0.93;;;14.20;99.90;;;;;;4996012;28;20251;-77
2021/09/01 04:00:58;;;;;;;0.90;0.90;;;14.20;99.90;;;;;;5000172;28;20224;-76
2021/09/01 04:03:25;;;;;;;0.85;0.77;;;14.20;99.90;;;;;;4997303;28;20279;-77
2021/09/01 04:05:52;;;;;;;0.88;0.88;;;14.30;99.90;;;;;;5001320;28;20220;-77
2021/09/01 04:08:19;;;;;;;0.88;0.88;;;14.20;99.90;;;;;;4999842;28;20625;-77
2021/09/01 04:10:46;;;;;;;1.00;0.95;;;14.20;99.90;;;;;;4996493;28;20690;-77
2021/09/01 04:13:13;;;;;;;0.90;0.90;;;14.20;99.90;;;;;;5003230;28;20236;-77
2021/09/01 04:15:40;;;;;;;0.90;0.90;;;14.20;99.90;;;;;;4995229;28;20564;-77
2021/09/01 04:18:08;;;;;;;1.00;1.00;;;14.20;99.90;;;;;;4997406;28;20282;-77
2021/09/01 04:20:35;;;;;;;2.10;0.90;;;14.20;99.90;;;;;;4997787;28;20230;-76
2021/09/01 04:23:03;;;;;;;0.88;0.88;;;14.10;99.90;;;;;;5003769;28;20216;-76
2021/09/01 04:25:30;;;;;;;1.48;1.13;;;14.20;99.90;;;;;;5000764;28;20254;-76
2021/09/01 04:27:57;;;;;;;0.77;0.77;;;14.20;99.90;;;;;;4998442;28;20228;-77
2021/09/01 04:30:24;;;;;;;1.63;1.08;;;14.30;99.90;;;;;;5000817;28;20297;-76
2021/09/01 04:32:51;;;;;;;1.00;1.00;;;14.40;99.90;;;;;;4996145;28;20223;-76
2021/09/01 04:35:19;;;;;;;1.30;1.20;;;14.50;99.90;;;;;;4996377;28;20282;-76
2021/09/01 04:37:46;;;;;;;1.30;1.20;;;14.50;99.90;;;;;;4994905;28;20239;-76
2021/09/01 04:40:14;;;;;;;1.05;1.05;;;14.60;99.90;;;;;;5000645;28;20220;-77
2021/09/01 04:42:41;;;;;;;1.05;1.05;;;14.60;99.90;;;;;;5007165;28;20224;-76
2021/09/01 04:45:09;;;;;;;1.73;1.15;;;14.60;99.90;;;;;;4999931;28;20236;-76
2021/09/01 04:47:36;;;;;;;1.30;1.20;;;14.50;99.90;;;;;;5001231;28;20232;-77
2021/09/01 04:50:03;;;;;;;1.65;1.55;;;14.50;99.90;;;;;;4991906;28;23228;-77
2021/09/01 04:52:31;;;;;;;1.35;1.00;;;14.50;99.90;;;;;;4996186;28;20228;-76
2021/09/01 04:54:59;;;;;;;1.60;1.10;;;14.50;99.90;;;;;;4982309;23;20267;-79
2021/09/01 04:57:26;;;;;;;1.50;1.05;;;14.70;99.90;;;;;;4998613;28;20646;-74
2021/09/01 04:59:53;;;;;;;1.40;1.30;;;14.90;99.90;;;;;;5002274;28;20231;-73
2021/09/01 05:02:20;;;;;;;1.10;1.10;;;14.90;99.90;;;;;;5003455;28;20236;-75
2021/09/01 05:04:47;;;;;;;1.33;1.23;;;14.90;99.90;;;;;;5000572;28;20290;-77
2021/09/01 05:07:14;;;;;;;1.20;1.10;;;14.90;99.90;;;;;;5001204;28;20236;-77
2021/09/01 05:09:43;;;;;;;1.00;1.00;;;14.80;99.90;;;;;;5002311;28;20657;-77
2021/09/01 05:12:10;;;;;;;1.40;1.30;;;14.70;99.90;;;;;;4998146;28;20212;-75
2021/09/01 05:14:37;;;;;;;1.20;1.10;;;14.70;99.90;;;;;;4998637;28;20777;-75
2021/09/01 05:17:04;;;;;;;1.02;1.02;;;14.70;99.90;;;;;;4998390;28;20290;-74
2021/09/01 05:19:32;;;;;;;1.00;1.00;;;15.00;99.90;;;;;;5003400;28;20278;-75
2021/09/01 05:22:04;;;;;;;1.10;1.00;;;15.30;99.90;;;;;;5003716;28;20232;-74
2021/09/01 05:24:39;;;;;;;1.05;1.05;;;15.60;99.90;;;;;;5006015;28;20223;-74
2021/09/01 05:27:12;;;;;;;0.90;0.90;;;15.90;99.90;;;;;;5001368;28;20265;-78
2021/09/01 05:29:45;;;;;;;1.25;1.23;;;16.20;99.90;;;;;;4998916;28;20433;-76
2021/09/01 05:32:17;;;;;;;1.20;1.20;;;16.50;99.90;;;;;;5003162;28;20208;-75
2021/09/01 05:34:44;;;;;;;1.20;1.10;;;16.80;99.90;;;;;;4999567;28;20250;-75
2021/09/01 05:37:13;;;;;;;0.95;0.95;;;17.10;99.90;;;;;;5001361;28;20220;-75
2021/09/01 05:39:44;;;;;;;0.80;0.80;;;17.40;99.90;;;;;;4995969;28;20254;-76
2021/09/01 05:42:16;;;;;;;0.88;0.88;;;17.70;99.90;;;;;;5001861;28;20223;-75
2021/09/01 05:44:43;;;;;;;3.70;1.33;;;17.90;99.90;;;;;;5002987;28;20232;-74
2021/09/01 05:47:12;;;;;;;2.05;1.25;;;18.10;99.90;;;;;;5003037;28;20232;-78
2021/09/01 05:49:40;;;;;;;1.25;1.15;;;18.10;99.90;;;;;;5004365;28;20242;-76
2021/09/01 05:52:08;;;;;;;0.95;0.95;;;18.20;99.90;;;;;;5004609;28;20240;-76
2021/09/01 05:54:36;;;;;;;1.08;1.00;;;18.40;99.90;;;;;;5009976;28;20232;-76
2021/09/01 05:57:09;;;;;;;1.20;1.10;;;18.60;99.90;;;;;;5004390;28;20245;-77
2021/09/01 05:59:43;;;;;;;1.30;1.20;;;18.80;99.90;;;;;;5006983;28;20224;-76
2021/09/01 06:02:17;;;;;;;1.40;1.30;;;19.00;99.90;;;;;;5007056;28;20250;-76
2021/09/01 06:04:46;;;;;;;1.50;1.15;;;19.00;99.90;;;;;;5006828;28;20253;-77
2021/09/01 06:07:15;;;;;;;1.45;1.10;;;18.90;99.90;;;;;;5005553;28;20263;-76
2021/09/01 06:09:44;;;;;;;1.33;1.23;;;19.00;99.90;;;;;;5008816;28;20220;-76
2021/09/01 06:12:15;;;;;;;1.30;1.20;;;19.10;99.90;;;;;;5004874;28;20665;-76
2021/09/01 06:14:43;;;;;;;1.27;1.17;;;19.40;99.90;;;;;;5005431;28;20224;-76
2021/09/01 06:17:10;;;;;;;1.20;1.10;;;19.70;99.90;;;;;;5007625;28;20285;-75
2021/09/01 06:19:38;;;;;;;1.63;1.30;;;20.00;99.90;;;;;;5010011;28;20286;-76
2021/09/01 06:22:05;;;;;;;1.25;1.10;;;20.10;99.90;;;;;;5005200;28;20255;-76
2021/09/01 06:24:33;;;;;;;1.70;0.95;;;20.20;99.90;;;;;;5008369;28;20698;-77
2021/09/01 06:27:00;;;;;;;1.30;1.20;;;20.10;99.90;;;;;;5008010;28;20292;-76
2021/09/01 06:29:28;;;;;;;1.08;1.02;;;20.10;99.90;;;;;;5009674;28;20220;-75
2021/09/01 06:31:57;;;;;;;1.20;1.10;;;20.10;99.90;;;;;;5010021;28;20224;-75
2021/09/01 06:34:24;;;;;;;1.02;1.02;;;20.10;99.90;;;;;;5014738;28;20220;-75
2021/09/01 06:36:51;;;;;;;1.30;1.20;;;19.90;99.90;;;;;;5011429;28;20223;-76
2021/09/01 06:39:18;;;;;;;1.20;1.10;;;19.90;99.90;;;;;;5011467;28;20224;-77
2021/09/01 06:41:46;;;;;;;1.35;1.25;;;20.00;99.90;;;;;;5007280;28;20217;-76
2021/09/01 06:44:14;;;;;;;1.10;1.10;;;20.10;99.90;;;;;;5008117;28;20236;-75
2021/09/01 06:46:41;;;;;;;1.05;1.05;;;20.20;99.90;;;;;;5012071;28;20228;-76
2021/09/01 06:49:10;;;;;;;1.52;1.25;;;20.30;99.90;;;;;;5008835;28;20231;-76
2021/09/01 06:51:37;;;;;;;1.50;1.40;;;20.30;99.90;;;;;;5012980;28;20227;-75
2021/09/01 06:54:04;;;;;;;1.50;1.13;;;20.30;99.90;;;;;;5010522;28;20294;-77
2021/09/01 06:56:31;;;;;;;1.10;1.00;;;20.50;99.90;;;;;;5008657;28;20243;-76
2021/09/01 06:58:58;;;;;;;1.40;1.30;;;20.60;99.90;;;;;;5009027;28;20702;-76
2021/09/01 07:01:25;;;;;;;2.15;1.23;;;20.60;99.90;;;;;;5008922;28;20215;-76
2021/09/01 07:03:54;;;;;;;1.15;1.02;;;20.50;99.90;;;;;;5008612;28;20275;-76
2021/09/01 07:06:23;;;;;;;1.25;1.15;;;20.50;99.90;;;;;;5012796;28;20220;-76
2021/09/01 07:08:50;;;;;;;1.25;1.15;;;20.60;99.90;;;;;;5010415;28;20216;-75
2021/09/01 07:11:17;;;;;;;1.30;1.20;;;20.60;99.90;;;;;;5009103;28;20576;-75
2021/09/01 07:13:44;;;;;;;2.10;1.00;;;20.60;99.90;;;;;;5008896;28;20653;-75
2021/09/01 07:16:13;;;;;;;2.90;1.55;;;20.80;99.90;;;;;;5010995;28;20227;-75
2021/09/01 07:18:41;;;;;;;1.42;1.33;;;20.80;99.90;;;;;;5010619;28;20208;-75
2021/09/01 07:21:08;;;;;;;1.30;1.20;;;20.70;99.90;;;;;;5002464;28;20224;-75
2021/09/01 07:23:36;;;;;;;1.65;1.20;;;20.80;99.90;;;;;;5005639;28;20228;-78
2021/09/01 07:26:03;;;;;;;1.02;1.00;;;20.90;99.90;;;;;;5004434;28;20232;-77
2021/09/01 07:28:30;;;;;;;1.15;1.08;;;21.10;99.90;;;;;;5003012;28;20231;-77
2021/09/01 07:30:57;;;;;;;3.42;1.13;;;21.20;99.90;;;;;;5005516;28;20236;-76
2021/09/01 07:33:24;;;;;;;1.40;1.30;;;21.00;99.90;;;;;;5007775;28;20304;-75
2021/09/01 07:35:51;;;;;;;1.30;1.20;;;20.60;99.90;;;;;;5007537;28;20224;-75
2021/09/01 07:38:18;;;;;;;2.17;1.15;;;20.40;99.90;;;;;;5006435;28;20262;-77
2021/09/01 07:40:47;;;;;;;3.85;1.48;;;20.30;99.90;;;;;;5003957;28;20251;-75
2021/09/01 07:43:14;;;;;;;2.67;1.50;;;20.30;99.90;;;;;;5006760;28;20216;-75
2021/09/01 07:45:43;;;;;;;2.20;1.20;;;20.40;99.90;;;;;;5009313;28;20223;-76
2021/09/01 07:48:13;;;;;;;2.28;1.30;;;20.40;99.90;;;;;;5007581;28;20243;-75
2021/09/01 07:50:41;;;;;;;2.05;1.02;;;20.40;99.90;;;;;;5010128;28;20247;-77
2021/09/01 07:53:08;;;;;;;1.20;1.10;;;20.50;99.90;;;;;;5012431;28;20230;-80
2021/09/01 07:55:35;;;;;;;1.40;1.30;;;20.80;99.90;;;;;;5007029;28;20235;-78
2021/09/01 07:58:03;;;;;;;1.30;1.05;;;21.00;99.90;;;;;;5003611;28;20220;-77
2021/09/01 08:00:31;;;;;;;1.90;1.40;;;21.00;99.90;;;;;;5003117;28;20259;-78
2021/09/01 08:02:58;;;;;;;1.52;1.42;;;21.10;99.90;;;;;;5005877;28;20286;-76
2021/09/01 08:05:25;;;;;;;1.48;1.15;;;21.40;99.90;;;;;;5006215;28;20464;-77
2021/09/01 08:07:52;;;;;;;1.30;1.20;;;21.70;99.90;;;;;;5004037;28;20220;-77
2021/09/01 08:10:19;;;;;;;2.92;1.30;;;22.10;99.90;;;;;;5007343;28;20220;-77
2021/09/01 08:12:46;;;;;;;1.58;1.48;;;22.50;99.90;;;;;;5000450;28;20235;-77
2021/09/01 08:15:15;;;;;;;2.95;1.20;;;22.50;99.90;;;;;;4997110;28;20645;-76
2021/09/01 08:17:42;;;;;;;2.30;1.13;;;22.50;99.90;;;;;;4999452;28;20220;-75
2021/09/01 08:20:10;;;;;;;1.20;1.10;;;22.70;99.90;;;;;;5006889;28;20317;-76
2021/09/01 08:22:37;;;;;;;1.83;1.30;;;22.70;99.90;;;;;;5006517;28;20224;-75
2021/09/01 08:25:05;;;;;;;2.70;1.42;;;22.80;99.90;;;;;;5005503;28;20232;-76
2021/09/01 08:27:32;;;;;;;1.33;1.20;;;23.00;99.90;;;;;;5001024;28;20220;-76
2021/09/01 08:29:59;;;;;;;1.33;1.23;;;22.90;99.90;;;;;;5004029;28;20219;-76
2021/09/01 08:32:27;;;;;;;1.20;1.10;;;22.90;99.90;;;;;;5002427;28;20223;-75
2021/09/01 08:34:54;;;;;;;1.33;1.23;;;22.80;99.90;;;;;;5001148;28;20225;-75
2021/09/01 08:37:22;;;;;;;1.08;1.08;;;22.70;99.90;;;;;;5004990;28;20614;-76
2021/09/01 08:39:49;;;;;;;1.23;1.15;;;22.80;99.90;;;;;;5006497;28;20231;-75
2021/09/01 08:42:18;;;;;;;1.75;1.65;;;22.80;99.90;;;;;;5005230;28;20257;-75
2021/09/01 08:44:45;;;;;;;1.58;1.20;;;22.90;99.90;;;;;;4999056;28;20252;-77
2021/09/01 08:47:13;;;;;;;1.38;1.27;;;23.00;99.90;;;;;;5003471;28;20658;-78
2021/09/01 08:49:41;;;;;;;1.63;1.20;;;23.00;99.90;;;;;;4998375;28;20247;-78
2021/09/01 08:52:08;;;;;;;1.40;1.30;;;23.00;99.90;;;;;;5004539;28;20228;-78
2021/09/01 08:54:35;;;;;;;3.10;1.33;;;23.10;99.90;;;;;;5002951;28;20227;-80
2021/09/01 08:57:02;;;;;;;2.13;1.10;;;23.10;99.90;;;;;;5006776;28;20690;-77
2021/09/01 08:59:29;;;;;;;1.30;1.20;;;23.00;99.90;;;;;;5005250;28;20223;-77
2021/09/01 09:01:57;;;;;;;2.95;1.38;;;23.00;99.90;;;;;;5005937;28;20290;-76
2021/09/01 09:04:29;;;;;;;1.50;1.20;;;23.40;99.90;;;;;;5009093;28;20232;-76
2021/09/01 09:06:59;;;;;;;1.17;1.10;;;23.10;99.90;;;;;;5003919;28;20223;-77
2021/09/01 09:09:27;;;;;;;1.10;1.10;;;23.20;99.90;;;;;;5005482;28;20220;-78
2021/09/01 09:11:55;;;;;;;1.00;1.00;;;23.50;99.90;;;;;;5000690;28;20609;-77
2021/09/01 09:14:24;;;;;;;1.20;1.10;;;23.80;99.90;;;;;;5002037;28;20227;-75
2021/09/01 09:17:09;;;;;;;1.25;1.15;;;24.00;99.90;;;;;;4999575;28;20274;-75
2021/09/01 09:19:51;;;;;;;2.22;1.10;;;24.20;99.90;;;;;;5001669;28;20215;-75
2021/09/01 09:22:22;;;;;;;1.88;1.10;;;24.40;99.90;;;;;;5004647;28;20657;-74
2021/09/01 09:25:06;;;;;;;1.33;1.23;;;24.10;99.90;;;;;;5006725;28;20228;-76
2021/09/01 09:27:52;;;;;;;1.30;1.20;;;24.20;99.90;;;;;;5004706;28;20232;-75
2021/09/01 09:30:30;;;;;;;1.42;1.30;;;24.20;99.90;;;;;;5004252;28;20281;-74
2021/09/01 09:33:00;;;;;;;1.25;1.15;;;24.20;99.90;;;;;;5005727;28;20227;-76
2021/09/01 09:35:28;;;;;;;1.83;1.40;;;24.10;99.90;;;;;;5000252;28;20219;-76
2021/09/01 09:38:06;;;;;;;1.20;1.10;;;23.90;99.90;;;;;;5004504;28;20278;-75
2021/09/01 09:40:34;;;;;;;1.20;1.10;;;23.90;99.90;;;;;;5002915;28;20216;-75
2021/09/01 09:43:16;;;;;;;1.67;1.40;;;24.10;99.90;;;;;;5000835;28;20219;-76
2021/09/01 09:45:44;;;;;;;1.63;1.30;;;24.20;99.90;;;;;;5002263;28;20225;-76
2021/09/01 09:48:11;;;;;;;1.23;1.13;;;24.20;99.90;;;;;;5004638;28;20236;-76
2021/09/01 09:50:38;;;;;;;1.52;1.17;;;24.20;99.90;;;;;;4997970;28;20220;-76
2021/09/01 09:53:08;;;;;;;1.20;1.10;;;24.40;99.90;;;;;;5004137;28;20239;-75
2021/09/01 09:55:35;;;;;;;1.33;1.23;;;24.50;99.90;;;;;;5002297;28;20228;-76
2021/09/01 09:58:02;;;;;;;1.67;1.30;;;24.60;99.90;;;;;;5001571;28;20243;-75
2021/09/01 10:00:30;;;;;;;1.42;1.33;;;24.70;99.90;;;;;;5004821;28;20247;-76
2021/09/01 10:02:58;;;;;;;1.50;1.00;;;24.60;99.90;;;;;;5006258;28;20338;-76
2021/09/01 10:05:27;;;;;;;1.35;1.25;;;24.70;99.90;;;;;;5007824;28;20228;-75
2021/09/01 10:07:57;;;;;;;1.60;1.30;;;24.80;99.90;;;;;;4999675;28;20282;-74
2021/09/01 10:10:25;;;;;;;1.50;1.40;;;24.90;99.90;;;;;;5009889;28;20284;-75
2021/09/01 10:12:52;;;;;;;1.30;1.20;;;24.80;99.90;;;;;;5002624;28;20224;-75
2021/09/01 10:15:26;;;;;;;1.40;1.30;;;24.70;99.90;;;;;;5008572;28;20815;-76
2021/09/01 10:17:59;;;;;;;1.35;1.25;;;24.50;99.90;;;;;;5004042;28;20224;-75
2021/09/01 10:20:27;;;;;;;0.95;0.95;;;24.50;99.90;;;;;;5008287;28;20216;-75
2021/09/01 10:23:01;;;;;;;1.58;1.15;;;24.60;99.90;;;;;;5011443;28;20643;-75
2021/09/01 10:25:37;;;;;;;1.67;1.20;;;24.80;99.90;;;;;;5011213;28;20599;-75
2021/09/01 10:28:33;;;;;;;1.17;1.08;;;24.90;99.90;;;;;;5004341;28;20231;-76
2021/09/01 10:31:20;;;;;;;1.13;1.10;;;24.90;99.90;;;;;;4995937;28;20268;-76
2021/09/01 10:33:48;;;;;;;1.40;1.30;;;25.20;99.90;;;;;;5004558;28;20689;-75
2021/09/01 10:36:58;;;;;;;1.40;1.30;;;25.40;99.90;;;;;;5004499;28;20710;-75
2021/09/01 10:39:45;;;;;;;1.50;1.17;;;25.60;99.90;;;;;;5000853;28;20239;-76
2021/09/01 10:42:39;;;;;;;1.15;1.05;;;25.90;99.90;;;;;;5010281;28;20293;-75
2021/09/01 10:45:24;;;;;;;1.30;1.20;;;26.10;99.90;;;;;;5007661;28;20235;-76
2021/09/01 10:48:15;;;;;;;2.65;1.10;;;26.10;99.90;;;;;;5008402;28;20216;-75
2021/09/01 10:50:45;;;;;;;1.30;1.20;;;25.90;99.90;;;;;;5003224;28;20223;-75
2021/09/01 10:53:19;;;;;;;1.23;1.13;;;25.60;99.90;;;;;;5012781;28;20224;-76
2021/09/01 10:55:50;;;;;;;1.85;1.00;;;25.50;99.90;;;;;;5011836;28;20242;-75
2021/09/01 10:58:36;;;;;;;1.33;1.23;;;25.60;99.90;;;;;;5006727;28;20231;-76
2021/09/01 11:01:15;;;;;;;1.02;1.00;;;25.50;99.90;;;;;;5004489;28;20220;-75
2021/09/01 11:03:48;;;;;;;1.23;1.13;;;25.70;99.90;;;;;;5003243;28;20216;-75
2021/09/01 11:06:23;;;;;;;1.23;1.13;;;26.00;99.90;;;;;;5002585;28;20236;-77
2021/09/01 11:09:03;;;;;;;0.90;0.90;;;26.10;99.90;;;;;;5007097;28;20236;-75
2021/09/01 11:11:45;;;;;;;1.08;1.02;;;26.20;99.90;;;;;;5007332;28;20216;-76
2021/09/01 11:14:28;;;;;;;1.48;1.20;;;26.40;99.90;;;;;;5003653;28;20235;-76
2021/09/01 11:16:56;;;;;;;1.20;1.10;;;26.50;99.90;;;;;;5000411;28;20596;-75
2021/09/01 11:19:23;;;;;;;2.55;1.20;;;26.60;99.90;;;;;;5003553;28;20220;-75
2021/09/01 11:21:50;;;;;;;0.95;0.90;;;26.80;99.90;;;;;;5003615;28;20217;-76
2021/09/01 11:24:19;;;;;;;2.42;1.20;;;27.00;99.90;;;;;;5009227;28;20242;-76
2021/09/01 11:26:47;;;;;;;1.15;1.08;;;27.20;99.90;;;;;;5004774;28;20224;-77
2021/09/01 11:29:15;;;;;;;1.20;1.00;;;27.40;99.90;;;;;;5004077;28;20247;-76
2021/09/01 11:31:51;;;;;;;0.82;0.82;;;27.50;99.90;;;;;;4998316;28;20278;-76
2021/09/01 11:34:18;;;;;;;1.70;1.00;;;27.40;99.90;;;;;;5002194;28;20286;-76
2021/09/01 11:36:46;;;;;;;1.95;1.05;;;27.50;99.90;;;;;;5002493;28;20623;-77
2021/09/01 11:39:16;;;;;;;1.08;1.08;;;27.70;99.90;;;;;;5003443;28;20770;-76
2021/09/01 11:41:45;;;;;;;1.10;1.00;;;27.70;99.90;;;;;;5005271;28;20274;-76
2021/09/01 11:44:13;;;;;;;1.00;1.00;;;27.50;99.90;;;;;;5000801;28;20248;-76
2021/09/01 11:46:42;;;;;;;1.02;1.00;;;27.50;99.90;;;;;;5007077;28;20670;-76
2021/09/01 11:49:11;;;;;;;2.78;1.38;;;27.50;99.90;;;;;;4995504;28;20239;-76
2021/09/01 11:51:40;;;;;;;1.20;1.10;;;27.40;99.90;;;;;;5007255;28;20387;-76
2021/09/01 11:54:09;;;;;;;0.90;0.90;;;27.50;99.90;;;;;;5009862;28;20235;-75
2021/09/01 11:56:37;;;;;;;1.98;1.10;;;27.70;99.90;;;;;;5005153;28;20577;-76
2021/09/01 11:59:06;;;;;;;1.02;0.90;;;27.90;99.90;;;;;;4998313;28;20235;-77
2021/09/01 12:01:37;;;;;;;1.10;1.00;;;27.80;98.10;;;;;;5005820;28;20294;-76
2021/09/01 12:04:05;;;;;;;1.30;1.20;;;28.00;98.20;;;;;;5005502;28;20235;-76
2021/09/01 12:06:37;;;;;;;0.98;0.98;;;28.20;97.50;;;;;;5006522;28;20644;-75
2021/09/01 12:09:07;;;;;;;1.50;1.40;;;28.20;97.30;;;;;;5007267;28;20228;-74
2021/09/01 12:11:35;;;;;;;1.23;1.13;;;28.40;97.50;;;;;;5011356;28;20224;-76
2021/09/01 12:14:04;;;;;;;1.65;1.27;;;28.60;96.90;;;;;;5020996;28;20617;-75
2021/09/01 12:16:33;;;;;;;1.30;1.20;;;28.50;95.80;;;;;;5008764;28;20216;-74
2021/09/01 12:19:07;;;;;;;1.20;1.10;;;28.40;95.00;;;;;;5012537;28;20216;-76
2021/09/01 12:21:53;;;;;;;1.30;1.20;;;28.50;95.30;;;;;;5013330;28;20282;-75
2021/09/01 12:24:24;;;;;;;1.27;1.15;;;28.70;93.70;;;;;;5011037;28;20690;-75
2021/09/01 12:26:54;;;;;;;1.00;1.00;;;28.80;95.30;;;;;;5008248;28;20235;-73
2021/09/01 12:29:36;;;;;;;1.10;1.00;;;28.80;94.70;;;;;;5013773;28;20235;-75
2021/09/01 12:32:06;;;;;;;1.30;1.20;;;28.60;93.10;;;;;;5014189;28;20315;-75
2021/09/01 12:34:36;;;;;;;1.15;1.00;;;28.30;93.70;;;;;;5009717;28;20248;-76
2021/09/01 12:37:09;;;;;;;2.22;1.20;;;28.20;93.90;;;;;;5006636;28;20606;-75
2021/09/01 12:39:45;;;;;;;1.05;1.00;;;28.10;92.90;;;;;;5001918;28;20236;-77
2021/09/01 12:42:33;;;;;;;1.15;1.10;;;28.00;93.00;;;;;;5005312;28;20275;-75
2021/09/01 12:45:02;;;;;;;1.10;1.10;;;28.10;92.70;;;;;;5002494;28;20224;-75
2021/09/01 12:47:31;;;;;;;1.33;1.23;;;28.30;94.10;;;;;;5008800;28;20583;-75
2021/09/01 12:50:00;;;;;;;1.45;1.30;;;28.40;93.00;;;;;;5007574;28;20236;-76
2021/09/01 12:52:30;;;;;;;1.15;1.10;;;28.20;93.20;;;;;;5009520;28;20246;-75
2021/09/01 12:54:59;;;;;;;2.55;1.38;;;28.30;92.60;;;;;;5011241;28;20228;-75
2021/09/01 12:57:26;;;;;;;1.20;1.10;;;28.20;92.80;;;;;;5001492;28;20227;-77
2021/09/01 12:59:53;;;;;;;0.98;0.98;;;28.30;93.20;;;;;;5010372;28;20219;-75